Racecast

Celia Taylor

UNA CA (CO) · 12 · CO D3A3A · Compare head to head

Athlete rating 113.7 2019 XC season
Best race 115.5 XC
Races 35
Seasons 5 2014 — 2019

RankedNation #30070·CO #829·CO D3A #221·Team #9 ?

Speed rating — all races

Cross Country

XC speed rating

2019 XC 108.7

UNA CA (CO) · Grade 12

Date Meet Event Result Place Rating Difficulty PR/SR Flags
2019-11-23 Grande Sports Complex 5000m 23:17 150th · 2nd on team 106.7 +0.004 ★CR CSR
2019-10-26 Norris Penrose Event Center 5000m 23:28.5 117th · 6th on team 113.6 +0.067 ★CR CSR
2019-10-18 Crown Mountain Park 5000m 22:27.2 37th · 7th on team 114.6 +0.038 ★CR SR CSR RSR
2019-10-04 Montezuma County Fairgrounds 5000m 26:58 19th · 4th on team 100.7 +0.093 CSR
2019-09-28 Salida High School 5000m 25:14.1 72nd · 6th on team 106.9 +0.092 ★CR CSR
2019-09-07 Cattails Golf Course 5000m 22:57 98th · 3rd on team 109.4 +0.012 SR CSR RSR

2018 XC 106.1

Pagosa Springs (CO) · Grade 11

Date Meet Event Result Place Rating Difficulty PR/SR Flags
2018-10-18 Aspen High School 4345m 22:50 32nd · 8th on team 96.5 ★PR ★CR SR CSR
2018-10-12 Monte Vista Golf Course 5000m 22:26.9 11th · 6th on team 115.5 +0.046 ★CR ★R SR CSR RSR
2018-09-29 Chicken Creek XC Course 5000m 24:06 9th · 6th on team 113.0 +0.096 ★CR CSR RSR
2018-09-22 Pagosa Springs High 5000m 26:34 17th · 8th on team 104.2 +0.117 CSR
2018-09-08 Cattails Golf Course 5000m 23:06.1 59th · 8th on team 108.4 +0.012 SR CSR RSR
2018-08-31 Loyd's Lake 4828m 25:08.6 2nd · 2nd on team 102.0 +0.077 SR CSR
2018-08-24 Norris Penrose Event Center 5000m 25:52.7 57th · 7th on team 103.2 +0.067 CR SR CSR RSR

2017 XC 110.0

Pagosa Springs (CO) · Grade 10

Date Meet Event Result Place Rating Difficulty PR/SR Flags
2017-10-05 Bear Creek Regional Park 5000m 23:54.9 93rd · 4th on team 108.0 +0.043 ★CR CSR
2017-09-30 Chicken Creek XC Course 5000m 24:44 9th · 5th on team 109.1 +0.096 CR CSR
2017-09-23 Pagosa Springs High 5000m 25:35 9th · 2nd on team 107.3 +0.117 ★CR CSR
2017-09-15 Fort Lewis College 5000m 22:16 46th · 5th on team 112.9 +0.020 ★CR CSR
2017-09-09 Cattails Golf Course 5000m 22:10.4 55th · 4th on team 112.9 +0.012 ★PR ★CR SR CSR RSR

2016 XC 107.8

Pagosa Springs (CO) · Grade 9

Date Meet Event Result Place Rating Difficulty PR/SR Flags
2016-10-21 Confluence Park 5000m 22:14.5 38th · 7th on team 111.8 -0.000 PR ★CR R SR CSR RSR
2016-10-14 Chapman Park 5000m 23:13 19th · 3rd on team 111.0 +0.044 PR ★CR R SR CSR RSR
2016-10-08 Montezuma County Fairgrounds 5000m 25:20 17th · 2nd on team 106.6 +0.093 ★CR CSR
2016-10-07 Fountain Creek Regional 5000m 23:25.4 67th · 7th on team 107.2 +0.016 PR ★CR SR CSR
2016-10-01 Chicken Creek XC Course 5000m 25:26.7 27th · 6th on team 106.3 +0.096 CR CSR
2016-09-16 Hillcrest Golf Club 5000m 23:37.5 39th · 7th on team 108.5 +0.040 PR ★CR R SR CSR RSR
2016-09-02 Loyd's Lake 4828m 24:44.1 41st · 7th on team 103.4 +0.077 ★PR ★CR R SR CSR RSR

2014 XC 80.9

Pagosa Springs (CO) · Grade -

Date Meet Event Result Place Rating Difficulty PR/SR Flags
2014-09-06 Cattails Golf Course 2574m 15:18 31st · 4th on team 80.9 ★PR ★CR R SR CSR RSR

Track & Field

TF speed rating

2019 TF 105.7

Pagosa Springs (CO) · Grade 11

Date Meet Event Result Place Rating Difficulty PR/SR Flags
2019-05-04 Terry Alley Invitational 1600m 6:44.15 2nd · 2nd on team 107.3 +0.014 SR RSR
2019-04-27 High Altitude Challenge 800m 3:04.75 12th · 1st on team 105.4 +0.020 SR RSR
2019-04-06 Abel Velasquez Invitational 1600m 6:52.61 14th · 3rd on team 104.3 +0.010 SR RSR

2017 TF 111.3

Pagosa Springs (CO) · Grade 9

Date Meet Event Result Place Rating Difficulty PR/SR Flags
2017-05-02 High Altitude Challenge 1600m 6:19.45 5th · 1st on team 114.6 +0.020 R RSR
2017-05-02 High Altitude Challenge 800m 2:55.6 12th · 2nd on team 110.3 +0.020
2017-04-08 Abel Velasquez Invitational 3200m 14:11.19 4th · 2nd on team 109.7 +0.010 ★PR SR
2017-03-25 Palmer Terror Invitational 800m 2:47.84 21st · 1st on team 112.5 -0.004 ★PR R SR RSR
2017-03-25 Palmer Terror Invitational 1600m 6:17.51 25th · 1st on team 112.2 -0.004 ★PR SR
2017-03-18 Farmington Invitational 800m 2:52.52 14th · 1st on team 108.8 -0.006 PR SR RSR